createdAt,value
2023-05-04T00:00:01.955Z,13.8818
2023-05-04T00:01:02.340Z,13.7656
2023-05-04T00:02:02.683Z,13.8392
2023-05-04T00:03:03.177Z,13.8692
2023-05-04T00:04:03.708Z,13.8178
2023-05-04T00:05:04.087Z,13.9831
2023-05-04T00:06:04.511Z,13.8880
2023-05-04T00:07:04.852Z,14.0079
2023-05-04T00:08:05.251Z,13.9312
2023-05-04T00:09:05.626Z,13.6159
2023-05-04T00:10:06.151Z,13.6748
2023-05-04T00:11:06.664Z,13.9261
2023-05-04T00:12:07.099Z,13.8487
2023-05-04T00:13:07.548Z,13.3284
2023-05-04T00:14:07.873Z,13.7458
2023-05-04T00:15:08.217Z,13.3390
2023-05-04T00:16:10.923Z,13.4906
2023-05-04T00:17:11.476Z,13.6840
2023-05-04T00:18:11.856Z,13.5968
2023-05-04T00:19:12.254Z,13.6306
2023-05-04T00:20:12.636Z,13.3777
2023-05-04T00:21:12.985Z,13.4232
2023-05-04T00:22:13.355Z,12.7261
2023-05-04T00:23:13.731Z,12.8990
2023-05-04T00:24:14.124Z,13.1792
2023-05-04T00:25:14.473Z,13.3023
2023-05-04T00:26:14.910Z,13.0813
2023-05-04T00:27:15.318Z,13.3413
2023-05-04T00:28:15.686Z,13.5275
2023-05-04T00:29:16.035Z,13.4566
2023-05-04T00:30:16.398Z,13.4893
2023-05-04T00:31:16.783Z,13.2115
2023-05-04T00:32:17.168Z,12.6809
2023-05-04T00:33:17.534Z,13.1510
2023-05-04T00:34:17.887Z,13.2452
2023-05-04T00:35:18.238Z,12.5871
2023-05-04T00:36:18.585Z,12.4541
2023-05-04T00:37:18.963Z,12.9134
2023-05-04T00:38:19.438Z,13.0509
2023-05-04T00:39:19.790Z,13.0390
2023-05-04T00:40:20.160Z,12.3331
2023-05-04T00:41:20.486Z,12.6477
2023-05-04T00:42:20.924Z,12.7009
2023-05-04T00:43:21.254Z,12.2035
2023-05-04T00:44:21.651Z,11.7995
2023-05-04T00:45:22.009Z,11.5231
2023-05-04T00:46:22.394Z,11.3509
2023-05-04T00:47:23.230Z,11.6349
2023-05-04T00:48:23.741Z,11.2164
2023-05-04T00:49:24.210Z,11.8009
2023-05-04T00:50:24.655Z,11.4310
2023-05-04T00:51:24.998Z,11.9287
2023-05-04T00:52:25.387Z,12.0947
2023-05-04T00:53:25.746Z,11.7350
2023-05-04T00:54:26.110Z,11.8506
2023-05-04T00:55:26.492Z,12.1081
2023-05-04T00:56:26.825Z,12.3929
2023-05-04T00:57:27.154Z,12.5091
2023-05-04T00:58:27.540Z,12.0970
2023-05-04T00:59:27.913Z,12.4076
2023-05-04T01:00:28.297Z,12.3152
2023-05-04T01:01:28.764Z,12.4437
2023-05-04T01:02:29.255Z,12.3056
2023-05-04T01:03:29.598Z,12.4023
2023-05-04T01:04:29.953Z,12.5100
2023-05-04T01:05:30.314Z,12.2978
2023-05-04T01:06:30.684Z,12.4655
2023-05-04T01:07:31.073Z,12.5968
2023-05-04T01:08:31.477Z,12.0510
2023-05-04T01:09:31.903Z,11.7368
2023-05-04T01:10:32.242Z,11.7844
2023-05-04T01:11:32.622Z,11.9333
2023-05-04T01:12:33.029Z,11.9494
2023-05-04T01:13:33.371Z,11.6820
2023-05-04T01:14:33.727Z,12.0554
2023-05-04T01:15:34.123Z,11.7494
2023-05-04T01:16:34.538Z,11.9541
2023-05-04T01:17:34.975Z,11.5555
2023-05-04T01:18:35.309Z,12.0443
2023-05-04T01:19:35.657Z,11.9440
2023-05-04T01:20:36.031Z,11.3812
2023-05-04T01:21:36.370Z,11.6648
2023-05-04T01:22:36.721Z,12.0281
2023-05-04T01:23:37.097Z,12.1002
2023-05-04T01:24:37.515Z,12.0654
2023-05-04T01:25:37.880Z,12.0946
2023-05-04T01:26:38.241Z,12.0658
2023-05-04T01:27:38.637Z,12.2633
2023-05-04T01:28:39.021Z,12.2974
2023-05-04T01:29:39.378Z,12.4905
2023-05-04T01:30:39.821Z,12.4619
2023-05-04T01:31:40.139Z,12.4346
2023-05-04T01:32:40.706Z,12.4233
2023-05-04T01:33:41.030Z,12.4655
2023-05-04T01:34:41.434Z,12.6245
2023-05-04T01:35:41.770Z,12.5325
2023-05-04T01:36:42.134Z,12.3750
2023-05-04T01:37:42.490Z,12.2085
2023-05-04T01:38:42.897Z,12.5916
2023-05-04T01:39:43.318Z,12.7122
2023-05-04T01:40:43.680Z,12.7911
2023-05-04T01:41:44.026Z,12.7883
2023-05-04T01:42:44.393Z,12.9199
2023-05-04T01:43:44.752Z,12.9148
2023-05-04T01:44:45.120Z,12.7131
2023-05-04T01:45:45.501Z,12.3127
2023-05-04T01:46:45.898Z,12.6623
2023-05-04T01:47:46.241Z,12.6855
2023-05-04T01:48:46.620Z,12.4204
2023-05-04T01:49:47.013Z,12.5401
2023-05-04T01:50:47.389Z,11.9900
2023-05-04T01:51:47.799Z,12.0578
2023-05-04T01:52:48.178Z,12.3674
2023-05-04T01:53:48.519Z,12.4265
2023-05-04T01:54:48.935Z,11.9264
2023-05-04T01:55:49.274Z,12.0628
2023-05-04T01:56:49.701Z,11.6145
2023-05-04T01:57:50.046Z,11.4327
2023-05-04T01:58:50.459Z,11.4252
2023-05-04T01:59:50.816Z,11.2480
2023-05-04T02:00:51.167Z,11.0864
2023-05-04T02:01:51.550Z,11.0521
2023-05-04T02:02:52.019Z,11.3598
2023-05-04T02:03:52.451Z,11.0876
2023-05-04T02:04:52.834Z,10.7946
2023-05-04T02:05:53.216Z,10.6991
2023-05-04T02:06:53.577Z,10.8550
2023-05-04T02:07:53.957Z,10.6922
2023-05-04T02:08:54.358Z,10.7557
2023-05-04T02:09:54.713Z,10.5713
2023-05-04T02:10:55.068Z,10.5648
2023-05-04T02:11:55.450Z,10.3937
2023-05-04T02:12:55.826Z,10.6568
2023-05-04T02:13:56.216Z,10.9237
2023-05-04T02:14:56.581Z,11.2580
2023-05-04T02:15:57.027Z,11.2542
2023-05-04T02:16:57.349Z,11.2764
2023-05-04T02:17:57.793Z,10.9909
2023-05-04T02:18:58.164Z,11.4257
2023-05-04T02:19:58.536Z,11.1061
2023-05-04T02:20:58.944Z,10.7973
2023-05-04T02:21:59.310Z,11.2551
2023-05-04T02:22:59.642Z,10.8292
2023-05-04T02:24:00.058Z,10.5474
2023-05-04T02:25:00.445Z,10.3340
2023-05-04T02:26:00.817Z,10.1929
2023-05-04T02:27:01.155Z,10.0975
2023-05-04T02:28:01.542Z,10.1423
2023-05-04T02:29:01.943Z,10.0964
2023-05-04T02:30:02.527Z,9.9928
2023-05-04T02:31:03.007Z,9.9558
2023-05-04T02:32:03.580Z,10.2817
2023-05-04T02:33:04.020Z,10.5525
2023-05-04T02:34:04.393Z,10.4915
2023-05-04T02:35:04.790Z,10.4629
2023-05-04T02:36:05.157Z,10.6540
2023-05-04T02:37:07.312Z,10.2949
2023-05-04T02:38:07.890Z,10.2301
2023-05-04T02:39:08.297Z,10.2214
2023-05-04T02:40:08.649Z,10.0692
2023-05-04T02:41:08.994Z,9.9852
2023-05-04T02:42:09.382Z,10.1279
2023-05-04T02:43:09.721Z,10.4675
2023-05-04T02:44:10.124Z,10.3522
2023-05-04T02:45:10.563Z,10.1470
2023-05-04T02:46:10.953Z,10.2482
2023-05-04T02:47:11.270Z,10.3887
2023-05-04T02:48:11.639Z,10.5531
2023-05-04T02:49:11.995Z,10.2987
2023-05-04T02:50:12.408Z,10.2736
2023-05-04T02:51:12.750Z,10.5847
2023-05-04T02:52:13.143Z,10.9707
2023-05-04T02:53:13.497Z,11.0409
2023-05-04T02:54:13.899Z,10.7849
2023-05-04T02:55:14.308Z,10.8188
2023-05-04T02:56:14.682Z,11.1229
2023-05-04T02:57:15.054Z,11.3395
2023-05-04T02:58:15.446Z,11.0259
2023-05-04T02:59:15.836Z,11.1558
2023-05-04T03:00:16.323Z,10.7047
2023-05-04T03:01:16.688Z,10.4307
2023-05-04T03:02:17.036Z,10.3506
2023-05-04T03:03:17.398Z,10.2301
2023-05-04T03:04:17.831Z,10.2135
2023-05-04T03:05:18.168Z,10.4571
2023-05-04T03:06:18.562Z,10.6114
2023-05-04T03:07:18.959Z,10.2006
2023-05-04T03:08:19.327Z,10.7274
2023-05-04T03:09:19.672Z,10.9435
2023-05-04T03:10:20.085Z,10.6434
2023-05-04T03:11:20.425Z,11.0259
2023-05-04T03:12:20.837Z,11.1962
2023-05-04T03:13:21.232Z,11.3540
2023-05-04T03:14:21.599Z,11.4570
2023-05-04T03:15:21.994Z,11.4690
2023-05-04T03:16:22.524Z,11.7086
2023-05-04T03:17:22.847Z,11.6767
2023-05-04T03:18:23.278Z,11.7970
2023-05-04T03:19:23.622Z,11.8964
2023-05-04T03:20:24.029Z,11.9356
2023-05-04T03:21:24.406Z,11.8271
2023-05-04T03:22:24.801Z,11.9216
2023-05-04T03:23:25.233Z,12.0259
2023-05-04T03:24:25.593Z,11.5984
2023-05-04T03:25:25.961Z,11.6619
2023-05-04T03:26:26.346Z,11.7964
2023-05-04T03:27:26.784Z,11.1991
2023-05-04T03:28:27.146Z,11.2389
2023-05-04T03:29:27.561Z,11.4691
2023-05-04T03:30:27.973Z,11.5467
2023-05-04T03:31:28.308Z,11.5565
2023-05-04T03:32:28.710Z,11.7934
2023-05-04T03:33:29.062Z,11.8928
2023-05-04T03:34:29.460Z,11.9327
2023-05-04T03:35:29.813Z,11.5659
2023-05-04T03:36:30.232Z,11.2577
2023-05-04T03:37:30.624Z,11.5153
2023-05-04T03:38:30.987Z,11.0750
2023-05-04T03:39:31.344Z,10.8784
2023-05-04T03:40:31.734Z,11.0134
2023-05-04T03:41:32.131Z,11.1242
2023-05-04T03:42:32.511Z,10.9698
2023-05-04T03:43:32.881Z,11.0600
2023-05-04T03:44:33.320Z,10.7741
2023-05-04T03:45:33.665Z,10.4428
2023-05-04T03:46:34.117Z,10.5753
2023-05-04T03:47:34.465Z,10.8573
2023-05-04T03:48:34.866Z,10.4187
2023-05-04T03:49:35.229Z,10.4448
2023-05-04T03:50:35.624Z,10.3334
2023-05-04T03:51:35.972Z,10.2675
2023-05-04T03:52:36.372Z,10.5160
2023-05-04T03:53:36.783Z,10.5474
2023-05-04T03:54:37.195Z,10.3954
2023-05-04T03:55:37.591Z,10.5206
2023-05-04T03:56:37.963Z,10.6729
2023-05-04T03:57:38.328Z,10.9173
2023-05-04T03:58:38.724Z,11.1324
2023-05-04T03:59:39.122Z,11.2045
2023-05-04T04:00:39.557Z,10.9471
2023-05-04T04:01:39.915Z,10.7017
2023-05-04T04:02:40.405Z,10.8913
2023-05-04T04:03:40.873Z,10.4602
2023-05-04T04:04:41.307Z,10.4368
2023-05-04T04:05:41.723Z,10.5139
2023-05-04T04:06:43.449Z,10.3375
2023-05-04T04:07:43.923Z,10.2951
2023-05-04T04:08:44.337Z,10.0785
2023-05-04T04:09:44.736Z,10.2165
2023-05-04T04:10:45.096Z,10.2338
2023-05-04T04:11:45.465Z,10.3524
2023-05-04T04:12:45.889Z,10.2194
2023-05-04T04:13:46.223Z,10.2493
2023-05-04T04:14:46.696Z,10.1300
2023-05-04T04:15:47.139Z,10.1742
2023-05-04T04:16:47.561Z,10.1678
2023-05-04T04:17:47.926Z,10.6660
2023-05-04T04:18:48.302Z,10.6482
2023-05-04T04:19:48.673Z,10.7519
2023-05-04T04:20:49.051Z,10.9198
2023-05-04T04:21:49.390Z,10.9268
2023-05-04T04:22:49.800Z,10.8757
2023-05-04T04:23:50.157Z,10.7375
2023-05-04T04:24:50.585Z,11.0736
2023-05-04T04:25:50.943Z,10.8594
2023-05-04T04:26:51.317Z,10.3581
2023-05-04T04:27:51.706Z,10.6290
2023-05-04T04:28:52.065Z,10.5105
2023-05-04T04:29:52.461Z,10.1070
2023-05-04T04:30:52.912Z,10.4884
2023-05-04T04:31:53.291Z,10.2840
2023-05-04T04:32:53.698Z,10.6413
2023-05-04T04:33:54.069Z,10.6268
2023-05-04T04:34:54.442Z,10.5884
2023-05-04T04:35:54.799Z,10.2942
2023-05-04T04:36:55.192Z,10.6302
2023-05-04T04:37:55.545Z,9.9423
2023-05-04T04:38:56.020Z,9.9824
2023-05-04T04:39:56.377Z,9.7276
2023-05-04T04:40:56.790Z,9.6465
2023-05-04T04:41:57.148Z,9.6550
2023-05-04T04:42:57.562Z,9.7293
2023-05-04T04:43:57.966Z,9.6766
2023-05-04T04:44:58.396Z,9.6711
2023-05-04T04:45:58.793Z,9.5883
2023-05-04T04:46:59.144Z,9.5928
2023-05-04T04:47:59.551Z,9.7836
2023-05-04T04:48:59.908Z,10.0944
2023-05-04T04:50:00.274Z,10.3556
2023-05-04T04:51:00.674Z,10.1240
2023-05-04T04:52:01.016Z,9.7456
2023-05-04T04:53:01.415Z,9.6412
2023-05-04T04:54:01.774Z,9.5533
2023-05-04T04:55:02.186Z,9.6627
2023-05-04T04:56:02.556Z,9.9144
2023-05-04T04:57:02.918Z,9.6426
2023-05-04T04:58:03.334Z,9.5381
2023-05-04T04:59:03.724Z,9.4708
2023-05-04T05:00:04.574Z,9.5084
2023-05-04T05:01:05.142Z,9.4719
2023-05-04T05:02:05.460Z,9.4401
2023-05-04T05:03:05.869Z,9.4203
2023-05-04T05:04:06.282Z,9.6143
2023-05-04T05:05:06.828Z,9.5689
2023-05-04T05:06:07.213Z,9.6446
2023-05-04T05:07:07.663Z,9.4560
2023-05-04T05:08:08.048Z,9.5207
2023-05-04T05:09:08.440Z,9.5465
2023-05-04T05:10:08.952Z,9.5050
2023-05-04T05:11:09.293Z,9.4918
2023-05-04T05:12:09.671Z,9.5575
2023-05-04T05:13:10.122Z,9.5487
2023-05-04T05:14:10.494Z,9.5557
2023-05-04T05:15:10.857Z,9.6601
2023-05-04T05:16:11.254Z,9.6981
2023-05-04T05:17:11.606Z,9.5714
2023-05-04T05:18:12.063Z,9.5386
2023-05-04T05:19:12.414Z,9.5259
2023-05-04T05:20:12.807Z,9.7511
2023-05-04T05:21:13.208Z,9.8537
2023-05-04T05:22:13.584Z,10.0376
2023-05-04T05:23:13.997Z,10.4516
2023-05-04T05:24:14.361Z,10.0436
2023-05-04T05:25:14.750Z,10.2530
2023-05-04T05:26:15.148Z,10.5621
2023-05-04T05:27:15.517Z,10.8964
2023-05-04T05:28:15.917Z,11.0067
2023-05-04T05:29:16.289Z,11.1392
2023-05-04T05:30:16.660Z,10.9569
2023-05-04T05:31:17.009Z,11.2180
2023-05-04T05:32:17.391Z,10.6520
2023-05-04T05:33:17.898Z,10.5212
2023-05-04T05:34:18.272Z,10.8167
2023-05-04T05:35:18.632Z,10.7016
2023-05-04T05:36:19.000Z,10.5930
2023-05-04T05:37:19.423Z,11.2359
2023-05-04T05:38:19.785Z,11.2061
2023-05-04T05:39:20.178Z,11.2960
2023-05-04T05:40:20.653Z,11.4383
2023-05-04T05:41:21.018Z,11.7150
2023-05-04T05:42:21.365Z,11.4027
2023-05-04T05:43:21.733Z,11.4058
2023-05-04T05:44:22.138Z,11.5188
2023-05-04T05:45:22.546Z,11.7524
2023-05-04T05:46:22.996Z,11.8639
2023-05-04T05:47:23.394Z,11.5315
2023-05-04T05:48:23.697Z,11.6816
2023-05-04T05:49:24.128Z,11.6822
2023-05-04T05:50:24.479Z,11.1211
2023-05-04T05:51:24.880Z,11.4266
2023-05-04T05:52:25.243Z,11.3904
2023-05-04T05:53:25.667Z,11.5077
2023-05-04T05:54:26.036Z,11.8072
2023-05-04T05:55:26.417Z,11.6752
2023-05-04T05:56:26.822Z,11.9419
2023-05-04T05:57:27.213Z,12.1421
2023-05-04T05:58:27.631Z,12.2202
2023-05-04T05:59:28.015Z,12.2496
2023-05-04T06:00:28.422Z,12.1031
2023-05-04T06:01:28.877Z,11.8563
2023-05-04T06:02:29.257Z,11.9258
2023-05-04T06:03:30.782Z,12.2148
2023-05-04T06:04:31.212Z,12.0848
2023-05-04T06:05:32.572Z,11.8555
2023-05-04T06:06:32.968Z,12.3063
2023-05-04T06:07:33.337Z,12.2967
2023-05-04T06:08:33.754Z,12.1167
2023-05-04T06:09:34.165Z,12.4452
2023-05-04T06:10:34.524Z,12.4334
2023-05-04T06:11:34.900Z,12.3782
2023-05-04T06:12:35.294Z,12.5100
2023-05-04T06:13:35.726Z,12.2886
2023-05-04T06:14:36.118Z,12.2551
2023-05-04T06:15:36.542Z,11.9945
2023-05-04T06:16:36.967Z,11.8808
2023-05-04T06:17:37.350Z,12.1600
2023-05-04T06:18:37.682Z,11.8445
2023-05-04T06:19:38.113Z,12.2443
2023-05-04T06:20:38.489Z,11.9329
2023-05-04T06:21:38.894Z,11.6981
2023-05-04T06:22:39.259Z,12.2096
2023-05-04T06:23:39.624Z,12.0867
2023-05-04T06:24:40.040Z,12.2235
2023-05-04T06:25:40.399Z,12.3198
2023-05-04T06:26:40.820Z,12.3647
2023-05-04T06:27:41.197Z,11.8500
2023-05-04T06:28:41.558Z,11.9359
2023-05-04T06:29:41.982Z,12.0830
2023-05-04T06:30:42.324Z,11.9974
2023-05-04T06:31:42.813Z,12.0655
2023-05-04T06:32:43.223Z,12.4594
2023-05-04T06:33:43.615Z,12.4180
2023-05-04T06:34:43.966Z,12.3406
2023-05-04T06:35:44.365Z,12.0953
2023-05-04T06:36:44.823Z,12.5153
2023-05-04T06:37:45.258Z,12.2878
2023-05-04T06:38:45.638Z,12.4342
2023-05-04T06:39:45.978Z,12.6346
2023-05-04T06:40:46.397Z,12.6251
2023-05-04T06:41:46.826Z,12.4699
2023-05-04T06:42:47.165Z,12.6089
2023-05-04T06:43:47.520Z,12.7881
2023-05-04T06:44:47.923Z,12.7057
2023-05-04T06:45:48.291Z,12.4818
2023-05-04T06:46:48.693Z,12.5951
2023-05-04T06:47:49.092Z,12.3845
2023-05-04T06:48:49.464Z,12.7822
2023-05-04T06:49:49.812Z,13.0055
2023-05-04T06:50:50.230Z,13.0629
2023-05-04T06:51:50.636Z,12.9748
2023-05-04T06:52:51.008Z,12.9160
2023-05-04T06:53:51.408Z,12.8573
2023-05-04T06:54:51.840Z,12.6861
2023-05-04T06:55:52.195Z,12.4865
2023-05-04T06:56:52.624Z,12.5069
2023-05-04T06:57:53.033Z,12.3630
2023-05-04T06:58:53.406Z,12.2354
2023-05-04T06:59:53.801Z,12.4947
2023-05-04T07:00:54.173Z,12.5940
2023-05-04T07:01:54.581Z,12.4710
2023-05-04T07:02:54.973Z,12.5665
2023-05-04T07:03:55.393Z,12.4790
2023-05-04T07:04:55.761Z,12.1496
2023-05-04T07:05:56.191Z,12.4125
2023-05-04T07:06:56.563Z,12.3542
2023-05-04T07:07:56.928Z,12.2872
2023-05-04T07:08:57.307Z,12.2283
2023-05-04T07:09:57.717Z,12.1700
2023-05-04T07:10:58.109Z,12.0964
2023-05-04T07:11:58.483Z,12.0982
2023-05-04T07:12:58.972Z,12.1784
2023-05-04T07:13:59.282Z,12.1706
2023-05-04T07:14:59.700Z,12.2588
2023-05-04T07:16:00.166Z,12.3177
2023-05-04T07:17:00.557Z,12.2995
2023-05-04T07:18:00.892Z,12.3066
2023-05-04T07:19:01.277Z,12.3802
2023-05-04T07:20:01.820Z,12.3213
2023-05-04T07:21:21.882Z,12.5428
2023-05-04T07:22:05.247Z,12.5892
2023-05-04T07:23:05.655Z,12.6387
2023-05-04T07:24:06.087Z,12.3989
2023-05-04T07:25:06.455Z,12.3308
2023-05-04T07:26:06.797Z,12.5710
2023-05-04T07:27:07.215Z,12.5981
2023-05-04T07:28:07.569Z,12.4296
2023-05-04T07:29:07.984Z,12.4524
2023-05-04T07:30:08.411Z,12.5067
2023-05-04T07:31:08.804Z,12.3610
2023-05-04T07:32:09.323Z,12.5606
2023-05-04T07:33:09.780Z,12.8369
2023-05-04T07:34:10.198Z,12.7634
2023-05-04T07:35:10.618Z,12.4452
2023-05-04T07:36:11.015Z,12.7129
2023-05-04T07:37:11.522Z,12.6247
2023-05-04T07:38:11.989Z,12.7705
2023-05-04T07:39:12.425Z,12.7681
2023-05-04T07:40:12.805Z,12.7651
2023-05-04T07:41:13.239Z,12.8792
2023-05-04T07:42:13.647Z,13.0549
2023-05-04T07:43:14.013Z,13.1939
2023-05-04T07:44:14.494Z,13.2577
2023-05-04T07:45:14.907Z,13.3597
2023-05-04T07:46:15.396Z,13.2819
2023-05-04T07:47:15.862Z,13.3729
2023-05-04T07:48:17.806Z,13.3494
2023-05-04T07:49:18.488Z,13.4946
2023-05-04T07:50:18.904Z,13.4814
2023-05-04T07:51:19.334Z,13.4534
2023-05-04T07:52:19.744Z,13.2319
2023-05-04T07:53:20.187Z,13.3062
2023-05-04T07:54:22.828Z,13.5060
2023-05-04T07:55:23.523Z,13.5372
2023-05-04T07:56:23.978Z,13.5385
2023-05-04T07:57:24.382Z,13.7294
2023-05-04T07:58:24.766Z,13.8290
2023-05-04T07:59:25.223Z,13.6949
2023-05-04T08:00:25.631Z,13.6734
2023-05-04T08:01:26.082Z,13.6219
2023-05-04T08:02:26.622Z,13.4485
2023-05-04T08:03:27.039Z,13.6274
2023-05-04T08:04:27.433Z,13.8368
2023-05-04T08:05:27.875Z,13.7956
2023-05-04T08:06:28.339Z,13.7845
2023-05-04T08:07:28.754Z,13.8092
2023-05-04T08:08:29.220Z,14.0218
2023-05-04T08:09:29.622Z,14.1151
2023-05-04T08:10:30.009Z,14.0585
2023-05-04T08:11:30.507Z,14.2040
2023-05-04T08:12:30.958Z,14.3346
2023-05-04T08:13:31.328Z,14.3355
2023-05-04T08:14:31.785Z,14.1331
2023-05-04T08:15:32.197Z,14.1611
2023-05-04T08:16:32.653Z,14.4170
2023-05-04T08:17:33.083Z,14.4034
2023-05-04T08:18:33.493Z,14.5844
2023-05-04T08:19:33.965Z,14.3286
2023-05-04T08:20:34.434Z,14.5661
2023-05-04T08:21:34.766Z,14.3507
2023-05-04T08:22:35.223Z,14.6066
2023-05-04T08:23:35.629Z,14.7105
2023-05-04T08:24:36.097Z,14.7999
2023-05-04T08:25:36.520Z,14.4722
2023-05-04T08:26:36.892Z,14.5876
2023-05-04T08:27:37.334Z,14.6270
2023-05-04T08:28:37.736Z,14.6080
2023-05-04T08:29:38.178Z,14.7805
2023-05-04T08:30:38.639Z,15.1233
2023-05-04T08:31:39.059Z,14.8673
2023-05-04T08:32:39.480Z,14.9995
2023-05-04T08:33:39.876Z,14.8192
2023-05-04T08:34:40.255Z,14.9293
2023-05-04T08:35:40.726Z,14.8928
2023-05-04T08:36:41.087Z,15.0824
2023-05-04T08:37:41.541Z,15.0714
2023-05-04T08:38:41.985Z,15.1279
2023-05-04T08:39:42.372Z,15.1185
2023-05-04T08:40:42.833Z,15.0817
2023-05-04T08:41:43.260Z,15.1858
2023-05-04T08:42:43.654Z,15.4525
2023-05-04T08:43:44.090Z,15.3659
2023-05-04T08:44:44.481Z,15.3598
2023-05-04T08:45:44.961Z,15.3163
2023-05-04T08:46:45.379Z,15.4071
2023-05-04T08:47:45.845Z,15.3821
2023-05-04T08:48:46.227Z,15.0305
2023-05-04T08:49:46.626Z,15.4146
2023-05-04T08:50:47.044Z,15.4870
2023-05-04T08:51:47.481Z,15.4499
2023-05-04T08:52:47.883Z,15.7237
2023-05-04T08:53:48.301Z,15.6702
2023-05-04T08:54:48.700Z,15.8592
2023-05-04T08:55:49.147Z,15.7626
2023-05-04T08:56:49.549Z,15.7881
2023-05-04T08:57:51.158Z,15.9547
2023-05-04T08:58:51.626Z,15.9491
2023-05-04T08:59:52.079Z,15.8372
2023-05-04T09:00:52.579Z,15.9602
2023-05-04T09:01:53.025Z,16.0350
2023-05-04T09:02:53.540Z,16.0853
2023-05-04T09:03:54.111Z,15.9784
2023-05-04T09:04:54.583Z,15.8831
2023-05-04T09:05:55.052Z,15.7110
2023-05-04T09:06:55.471Z,15.9814
2023-05-04T09:07:55.917Z,16.1387
2023-05-04T09:08:56.334Z,16.5441
2023-05-04T09:09:56.739Z,16.5845
2023-05-04T09:10:57.139Z,16.5244
2023-05-04T09:11:57.578Z,16.6042
2023-05-04T09:12:58.200Z,16.0597
2023-05-04T09:13:58.627Z,16.1965
2023-05-04T09:14:59.025Z,16.1514
2023-05-04T09:15:59.462Z,16.3980
2023-05-04T09:16:59.877Z,16.4833
2023-05-04T09:18:00.479Z,16.3112
2023-05-04T09:19:00.867Z,16.5432
2023-05-04T09:20:01.398Z,16.6947
2023-05-04T09:21:01.824Z,16.8235
2023-05-04T09:22:02.205Z,16.9180
2023-05-04T09:23:02.589Z,16.8347
2023-05-04T09:24:03.008Z,16.8380
2023-05-04T09:25:03.661Z,16.9774
2023-05-04T09:26:04.175Z,17.0762
2023-05-04T09:27:04.580Z,17.1261
2023-05-04T09:28:05.098Z,16.9319
2023-05-04T09:29:05.502Z,17.1458
2023-05-04T09:30:05.934Z,17.2329
2023-05-04T09:31:06.356Z,17.1509
2023-05-04T09:32:06.770Z,17.0501
2023-05-04T09:33:07.162Z,17.1212
2023-05-04T09:34:07.582Z,17.3146
2023-05-04T09:35:09.519Z,17.4072
2023-05-04T09:36:11.107Z,17.3037
2023-05-04T09:37:11.558Z,17.3222
2023-05-04T09:38:11.950Z,17.4700
2023-05-04T09:39:12.391Z,17.3166
2023-05-04T09:40:12.797Z,17.0062
2023-05-04T09:41:13.182Z,17.1409
2023-05-04T09:42:13.583Z,17.2360
2023-05-04T09:43:13.976Z,17.3430
2023-05-04T09:44:14.441Z,17.4842
2023-05-04T09:45:14.877Z,17.6048
2023-05-04T09:46:15.292Z,17.3090
2023-05-04T09:47:15.681Z,17.8032
2023-05-04T09:48:16.097Z,17.8182
2023-05-04T09:49:16.489Z,17.8880
2023-05-04T09:50:20.124Z,17.7962
2023-05-04T09:51:17.932Z,17.5651
2023-05-04T09:52:18.323Z,17.4712
2023-05-04T09:53:18.770Z,17.5824
2023-05-04T09:54:19.177Z,17.6619
2023-05-04T09:55:19.606Z,17.4563
2023-05-04T09:56:20.015Z,17.5335
2023-05-04T09:57:20.438Z,17.4614
2023-05-04T09:58:20.847Z,17.4968
2023-05-04T09:59:21.278Z,17.6748
2023-05-04T10:00:21.688Z,17.8938
2023-05-04T10:01:22.138Z,17.6159
2023-05-04T10:02:23.525Z,17.7268
2023-05-04T10:03:24.175Z,17.8836
2023-05-04T10:04:24.572Z,17.8539
2023-05-04T10:05:25.048Z,17.8453
2023-05-04T10:06:25.455Z,17.7742
2023-05-04T10:07:25.850Z,17.7870
2023-05-04T10:08:26.244Z,17.8029
2023-05-04T10:09:26.680Z,17.6389
2023-05-04T10:10:27.156Z,17.7142
2023-05-04T10:11:27.576Z,17.6205
2023-05-04T10:12:28.001Z,17.7469
2023-05-04T10:13:28.394Z,17.5602
2023-05-04T10:14:28.810Z,17.4198
2023-05-04T10:15:29.212Z,17.5848
2023-05-04T10:16:29.813Z,17.6057
2023-05-04T10:17:30.176Z,17.6216
2023-05-04T10:18:30.594Z,17.7486
2023-05-04T10:19:30.995Z,17.7045
2023-05-04T10:20:31.409Z,17.8705
2023-05-04T10:21:31.828Z,17.8492
2023-05-04T10:22:32.293Z,17.8002
2023-05-04T10:23:32.698Z,17.9506
2023-05-04T10:24:33.090Z,18.0879
2023-05-04T10:25:33.517Z,18.2650
2023-05-04T10:26:33.952Z,18.1739
2023-05-04T10:27:34.349Z,18.2138
2023-05-04T10:28:34.783Z,18.3957
2023-05-04T10:29:35.192Z,18.3854
2023-05-04T10:30:35.609Z,18.4080
2023-05-04T10:31:36.072Z,18.5239
2023-05-04T10:32:36.479Z,18.3966
2023-05-04T10:33:36.883Z,18.2304
2023-05-04T10:34:37.297Z,18.1835
2023-05-04T10:35:37.712Z,18.3393
2023-05-04T10:36:38.148Z,18.3338
2023-05-04T10:37:38.549Z,18.2301
2023-05-04T10:38:39.014Z,18.3010
2023-05-04T10:39:39.407Z,18.1509
2023-05-04T10:40:39.800Z,18.2399
2023-05-04T10:41:40.250Z,18.2617
2023-05-04T10:42:40.654Z,18.4742
2023-05-04T10:43:41.080Z,18.4246
2023-05-04T10:44:41.461Z,18.4912
2023-05-04T10:45:41.930Z,18.5955
2023-05-04T10:46:42.454Z,18.6565
2023-05-04T10:47:42.898Z,18.7528
2023-05-04T10:48:43.302Z,18.7565
2023-05-04T10:49:43.739Z,18.9611
2023-05-04T10:50:44.174Z,18.9541
2023-05-04T10:51:49.457Z,18.7869
2023-05-04T10:52:47.729Z,18.7356
2023-05-04T10:53:48.171Z,18.6259
2023-05-04T10:54:48.517Z,18.6764
2023-05-04T10:55:48.959Z,18.7953
2023-05-04T10:56:49.343Z,19.0363
2023-05-04T10:57:49.785Z,19.1257
2023-05-04T10:58:50.181Z,19.0105
2023-05-04T10:59:50.609Z,19.1225
2023-05-04T11:00:51.038Z,19.2925
2023-05-04T11:01:51.447Z,19.3877
2023-05-04T11:02:52.033Z,19.4098
2023-05-04T11:03:52.542Z,19.5838
2023-05-04T11:04:52.910Z,19.4874
2023-05-04T11:05:53.364Z,19.6007
2023-05-04T11:06:53.754Z,19.4284
2023-05-04T11:07:54.170Z,19.7481
2023-05-04T11:08:54.566Z,19.7202
2023-05-04T11:09:54.962Z,19.7411
2023-05-04T11:10:55.431Z,20.0210
2023-05-04T11:11:55.837Z,20.1878
2023-05-04T11:12:56.245Z,20.2490
2023-05-04T11:13:56.657Z,19.8479
2023-05-04T11:14:57.074Z,19.8942
2023-05-04T11:15:57.486Z,19.4586
2023-05-04T11:16:57.965Z,19.8792
2023-05-04T11:17:58.383Z,19.8164
2023-05-04T11:18:58.884Z,19.8687
2023-05-04T11:19:59.214Z,19.6654
2023-05-04T11:20:59.652Z,20.0817
2023-05-04T11:22:00.108Z,20.3705
2023-05-04T11:23:00.502Z,20.6060
2023-05-04T11:24:00.923Z,20.4955
2023-05-04T11:25:01.317Z,20.2323
2023-05-04T11:26:01.813Z,20.7546
2023-05-04T11:27:02.181Z,20.4210
2023-05-04T11:28:02.641Z,20.4782
2023-05-04T11:29:03.057Z,20.8218
2023-05-04T11:30:03.559Z,21.1961
2023-05-04T11:31:04.027Z,21.5495
2023-05-04T11:32:04.478Z,21.5241
2023-05-04T11:33:04.879Z,21.7860
2023-05-04T11:34:05.378Z,21.4626
2023-05-04T11:35:05.897Z,21.4384
2023-05-04T11:36:06.392Z,21.4369
2023-05-04T11:37:06.806Z,21.2513
2023-05-04T11:38:07.250Z,21.4278
2023-05-04T11:39:07.703Z,21.3099
2023-05-04T11:40:08.109Z,21.6565
2023-05-04T11:41:08.486Z,20.8273
2023-05-04T11:42:08.964Z,21.7248
2023-05-04T11:43:09.356Z,21.7729
2023-05-04T11:44:09.763Z,22.1858
2023-05-04T11:45:10.240Z,22.0287
2023-05-04T11:46:10.657Z,21.9456
2023-05-04T11:47:11.007Z,21.9678
2023-05-04T11:48:11.605Z,22.3215
2023-05-04T11:49:11.977Z,22.4337
2023-05-04T11:50:12.410Z,22.7323
2023-05-04T11:51:12.835Z,22.9959
2023-05-04T11:52:13.236Z,22.7278
2023-05-04T11:53:13.665Z,22.2978
2023-05-04T11:54:14.168Z,22.6342
2023-05-04T11:55:14.553Z,22.6856
2023-05-04T11:56:14.942Z,23.0505
2023-05-04T11:57:15.347Z,23.3582
2023-05-04T11:58:15.781Z,23.1374
2023-05-04T11:59:16.167Z,23.1517
2023-05-04T12:00:16.580Z,23.1400
2023-05-04T12:01:17.002Z,23.0688
2023-05-04T12:02:17.461Z,23.3957
2023-05-04T12:03:18.016Z,23.4310
2023-05-04T12:04:18.559Z,23.6454
2023-05-04T12:05:19.024Z,23.8120
2023-05-04T12:06:19.420Z,23.6503
2023-05-04T12:07:19.823Z,23.9451
2023-05-04T12:08:20.276Z,22.9449
2023-05-04T12:09:20.630Z,22.0471
2023-05-04T12:10:21.107Z,23.2141
2023-05-04T12:11:21.507Z,23.4819
2023-05-04T12:12:21.929Z,23.3049